Kindersley Airport, Saskatchewan

Past 24 Hour Conditions

This table is a summary of hourly weather conditions for the past 24 hours. This summary includes the following parameters: temperature, humidity, dew point, wind speed and direction, air pressure, visibility and/or wind chill and humidex.
Date / Time
(CST)
Conditions Temp (°F) Humidity (%) Dew Point (°F) Wind (mph) Pressure (inches) Vis (mi) Humidex
27 July 2014
22:00 Mainly Clear 60 87 57 SE 9 30.2 15 *
21:00 Mainly Sunny 63 89 60 SE 7 30.2 15 *
20:00 Mainly Sunny 70 68 59 SSE 5 30.2 15 77
19:00 Mainly Sunny 74   52 55 SSW 4 30.2 15 79
18:00 Mainly Sunny 74   50 55 SSW 4 30.3 15 79
17:00 Mainly Sunny 74   53 56 SW 4 30.3 15 80
16:00 Mainly Sunny 72 59 57 calm 30.3 15 78
15:00 Partly Cloudy 71 59 56 calm 30.3 15 *
14:00 Partly Cloudy 71 56 55 WNW 5 30.3 15 *
13:00 Partly Cloudy 68 62 55 N 3 30.3 15 *
12:00 Partly Cloudy 68 62 54 NW 2 30.3 15 *
11:00 Partly Cloudy 65 69 55 NW 6 30.3 15 *
10:00 Partly Cloudy 63 78 57 NNW 4 30.3 15 *
9:00 Mainly Sunny 60 88 57 W 3 30.3 10 *
8:00 Mist 55 96 54 SW 4 30.3 6 *
7:00 Mist 52 98 51 calm 30.3 2 *
6:00 Fog 49   98 48 calm 30.3 0.2 *
5:00 Mist 49   98 49 WNW 4 30.2 1 *
4:00 Mist 49   98 49 NNW 3 30.2 1 *
3:00 Mist 50 97 49 WNW 4 30.2 6 *
2:00 Mainly Clear 52 96 51 NW 3 30.2 15 *
1:00 Partly Cloudy 53 96 52 NW 5 30.2 15 *
00:00 Partly Cloudy 55 96 53 WNW 7 30.2 15 *
26 July 2014
23:00 Partly Cloudy 57 91 54 WNW 5 30.2 15 *
22:00 Mostly Cloudy 58 91 55 W 5 30.2 15 *
N/A
Not available
 ↑ 
Highest temperature
 ↓ 
Lowest temperature
*
Value not significant.

If you require additional historical weather information, please visit Climate Data Online.